Time;durP1;ratioP1;P1;durP2;ratioP2;P2;SDS_P1;SDS_P2;PMS_P1;PMS_P2;Temp;Humidity;BMP_temperature;BMP_pressure;BME280_temperature;BME280_humidity;BME280_pressure;Samples;Min_cycle;Max_cycle;Signal;HPM_P1;HPM_P2
2022/12/24 00:00:20;;;;;;;32.03;16.75;;;6.70;99.90;;;;;;5133579;28;20045;-63
2022/12/24 00:02:46;;;;;;;29.27;17.35;;;6.90;99.90;;;;;;5133380;28;20066;-63
2022/12/24 00:05:12;;;;;;;29.20;17.40;;;6.60;99.90;;;;;;5133179;28;20092;-63
2022/12/24 00:07:38;;;;;;;29.00;17.80;;;6.90;99.90;;;;;;5133968;28;20035;-63
2022/12/24 00:10:04;;;;;;;30.52;16.83;;;6.70;99.90;;;;;;5133486;28;20043;-62
2022/12/24 00:12:30;;;;;;;28.88;17.90;;;6.70;99.90;;;;;;5115540;28;20050;-62
2022/12/24 00:14:56;;;;;;;30.83;18.08;;;6.80;99.90;;;;;;5133304;28;20035;-63
2022/12/24 00:17:21;;;;;;;27.75;17.50;;;6.70;99.90;;;;;;5133206;28;20134;-62
2022/12/24 00:19:47;;;;;;;29.05;17.55;;;6.90;99.90;;;;;;5133839;28;20039;-63
2022/12/24 00:22:13;;;;;;;28.85;17.33;;;6.90;99.90;;;;;;5133331;28;20027;-62
2022/12/24 00:24:39;;;;;;;25.85;16.60;;;6.70;99.90;;;;;;5133530;28;20062;-62
2022/12/24 00:27:04;;;;;;;24.95;15.63;;;6.60;99.90;;;;;;5114998;28;20062;-63
2022/12/24 00:29:31;;;;;;;26.05;16.50;;;6.70;99.90;;;;;;5114555;28;20051;-63
2022/12/24 00:31:57;;;;;;;26.80;16.73;;;6.90;99.90;;;;;;5133474;28;20116;-63
2022/12/24 00:34:23;;;;;;;25.25;15.90;;;6.90;99.90;;;;;;5133529;28;20039;-63
2022/12/24 00:36:50;;;;;;;26.35;16.35;;;6.90;99.90;;;;;;5133409;28;20027;-63
2022/12/24 00:39:15;;;;;;;27.13;16.52;;;6.80;99.90;;;;;;5133235;28;20065;-63
2022/12/24 00:41:41;;;;;;;27.27;16.55;;;6.70;99.90;;;;;;5133480;28;20035;-63
2022/12/24 00:44:10;;;;;;;26.80;16.00;;;6.80;99.90;;;;;;5133615;28;20035;-63
2022/12/24 00:46:38;;;;;;;27.52;16.27;;;6.70;99.90;;;;;;5133120;28;20446;-64
2022/12/24 00:49:05;;;;;;;29.05;17.50;;;6.70;99.90;;;;;;5133452;28;20105;-62
2022/12/24 00:51:33;;;;;;;29.27;17.20;;;6.90;99.90;;;;;;5133321;28;20133;-63
2022/12/24 00:53:59;;;;;;;25.70;15.50;;;6.60;99.90;;;;;;5133287;28;20035;-63
2022/12/24 00:56:24;;;;;;;28.63;16.85;;;6.90;99.90;;;;;;5133143;27;20038;-63
2022/12/24 00:58:51;;;;;;;29.58;16.35;;;6.80;99.90;;;;;;5136701;27;20392;-63
2022/12/24 01:01:17;;;;;;;29.05;16.38;;;6.80;99.90;;;;;;5136681;27;20035;-63
2022/12/24 01:03:42;;;;;;;23.90;16.17;;;6.70;99.90;;;;;;5136810;27;20043;-63
2022/12/24 01:06:11;;;;;;;26.38;16.63;;;6.80;99.90;;;;;;5118344;27;20047;-63
2022/12/24 01:08:37;;;;;;;29.15;17.38;;;6.90;99.90;;;;;;5136502;27;20039;-63
2022/12/24 01:11:04;;;;;;;27.13;17.40;;;6.70;99.90;;;;;;5118306;27;20043;-63
2022/12/24 01:13:30;;;;;;;25.85;17.73;;;6.90;99.90;;;;;;5136519;27;20036;-63
2022/12/24 01:15:56;;;;;;;31.13;18.60;;;6.80;99.90;;;;;;5136348;27;20161;-63
2022/12/24 01:18:22;;;;;;;29.95;17.88;;;6.90;99.90;;;;;;5136487;27;20077;-63
2022/12/24 01:21:02;;;;;;;30.55;18.98;;;6.70;99.90;;;;;;5136548;27;20421;-63
2022/12/24 01:23:27;;;;;;;;;;;6.70;99.90;;;;;;5136810;27;20067;-63
2022/12/24 01:25:53;;;;;;;28.25;18.45;;;6.60;99.90;;;;;;5136373;27;19962;-62
2022/12/24 01:28:20;;;;;;;29.58;18.33;;;6.80;99.90;;;;;;5136122;27;20441;-63
2022/12/24 01:30:47;;;;;;;32.88;18.63;;;6.80;99.90;;;;;;5136282;27;20119;-63
2022/12/24 01:33:13;;;;;;;31.05;18.95;;;6.80;99.90;;;;;;5136336;27;20038;-63
2022/12/24 01:35:40;;;;;;;29.42;18.33;;;7.00;99.90;;;;;;5136164;27;20424;-63
2022/12/24 01:38:05;;;;;;;28.98;17.48;;;6.80;99.90;;;;;;5135926;27;20038;-63
2022/12/24 01:43:23;;;;;;;29.15;17.77;;;6.80;99.90;;;;;;5136149;27;20366;-63
2022/12/24 01:45:52;;;;;;;27.42;16.83;;;6.90;99.90;;;;;;5136068;27;20035;-63
2022/12/24 01:48:32;;;;;;;27.35;18.00;;;6.90;99.90;;;;;;5135916;27;20533;-62
2022/12/24 01:51:12;;;;;;;26.67;17.02;;;6.80;99.90;;;;;;5117503;27;20046;-63
2022/12/24 01:53:40;;;;;;;27.73;17.20;;;6.90;99.90;;;;;;5135831;27;20389;-63
2022/12/24 01:56:08;;;;;;;29.45;17.25;;;7.00;99.90;;;;;;5135985;27;20047;-63
2022/12/24 01:58:35;;;;;;;27.23;16.77;;;7.00;99.90;;;;;;5135498;27;20376;-62
2022/12/24 02:01:01;;;;;;;30.08;16.73;;;7.00;99.90;;;;;;5135715;27;20096;-63
2022/12/24 02:03:27;;;;;;;29.90;17.48;;;6.90;99.90;;;;;;5135637;27;20456;-63
2022/12/24 02:05:56;;;;;;;25.33;16.52;;;6.90;99.90;;;;;;5135770;27;20070;-62
2022/12/24 02:08:22;;;;;;;25.40;17.20;;;7.10;99.90;;;;;;5134850;27;20043;-63
2022/12/24 02:10:48;;;;;;;25.23;16.70;;;7.00;99.90;;;;;;5135333;27;20043;-62
2022/12/24 02:13:16;;;;;;;26.05;17.00;;;7.00;99.90;;;;;;5135770;27;20035;-63
2022/12/24 02:15:56;;;;;;;27.17;17.48;;;7.00;99.90;;;;;;5135501;27;20377;-62
2022/12/24 02:18:44;;;;;;;28.35;17.35;;;7.00;99.90;;;;;;5135213;27;20485;-62
2022/12/24 02:21:32;;;;;;;25.98;16.63;;;6.90;99.90;;;;;;5135624;27;20039;-63
2022/12/24 02:24:12;;;;;;;24.45;16.27;;;7.00;99.90;;;;;;5100328;27;20456;-62
2022/12/24 02:27:08;;;;;;;22.98;15.07;;;7.00;99.90;;;;;;5135475;27;20061;-62
2022/12/24 02:30:04;;;;;;;27.27;17.40;;;6.90;99.90;;;;;;5135154;27;20116;-63
2022/12/24 02:32:33;;;;;;;27.02;17.05;;;7.10;99.90;;;;;;5135291;27;20430;-63
2022/12/24 02:35:28;;;;;;;25.73;15.88;;;7.00;99.90;;;;;;5135036;27;20039;-63
2022/12/24 02:38:01;;;;;;;26.92;17.38;;;7.00;99.90;;;;;;5134799;27;20036;-63
2022/12/24 02:40:46;;;;;;;25.17;16.80;;;7.00;99.90;;;;;;5135294;27;20147;-63
2022/12/24 02:43:17;;;;;;;27.92;17.13;;;6.90;99.90;;;;;;5135112;27;20080;-63
2022/12/24 02:45:46;;;;;;;35.17;18.35;;;6.90;99.90;;;;;;5116355;27;20433;-63
2022/12/24 02:48:15;;;;;;;27.50;17.23;;;7.10;99.90;;;;;;5135259;27;20727;-62
2022/12/24 02:50:53;;;;;;;;;;;7.00;99.90;;;;;;5135559;27;20047;-62
2022/12/24 02:53:18;;;;;;;29.48;17.60;;;7.10;99.90;;;;;;5134818;27;20003;-62
2022/12/24 02:56:15;;;;;;;27.67;17.25;;;7.10;99.90;;;;;;5134406;27;20114;-63
2022/12/24 02:59:21;;;;;;;29.92;18.80;;;7.00;99.90;;;;;;5134816;27;20043;-62
2022/12/24 03:02:11;;;;;;;29.00;18.23;;;7.20;99.90;;;;;;5134555;27;20038;-62
2022/12/24 03:04:40;;;;;;;;;;;7.00;99.90;;;;;;5135348;27;20042;-63
2022/12/24 03:07:11;;;;;;;28.50;17.70;;;7.20;99.90;;;;;;5134294;27;20767;-63
2022/12/24 03:09:39;;;;;;;31.52;18.58;;;7.10;99.90;;;;;;5134165;27;20042;-62
2022/12/24 03:12:11;;;;;;;27.90;18.20;;;7.20;99.90;;;;;;5134599;27;20084;-63
2022/12/24 03:14:40;;;;;;;27.63;16.98;;;7.10;99.90;;;;;;5134146;27;20043;-62
2022/12/24 03:17:06;;;;;;;27.02;18.27;;;7.10;99.90;;;;;;5133994;27;20474;-63
2022/12/24 03:19:33;;;;;;;31.67;18.20;;;7.10;99.90;;;;;;5134291;27;20066;-63
2022/12/24 03:22:03;;;;;;;28.65;17.77;;;7.20;99.90;;;;;;5134111;27;20039;-62
2022/12/24 03:24:28;;;;;;;27.83;17.17;;;7.20;99.90;;;;;;5134099;27;20082;-62
2022/12/24 03:26:55;;;;;;;34.33;17.67;;;7.20;99.90;;;;;;5133916;27;20134;-63
2022/12/24 03:29:20;;;;;;;31.60;17.52;;;7.50;99.90;;;;;;5134043;27;20038;-63
2022/12/24 03:31:49;;;;;;;29.63;17.05;;;7.50;99.90;;;;;;5134200;27;20039;-63
2022/12/24 03:34:15;;;;;;;;;;;7.60;99.90;;;;;;5115909;27;20534;-62
2022/12/24 03:36:42;;;;;;;23.27;12.68;;;7.50;99.90;;;;;;5133873;27;19962;-64
2022/12/24 03:39:08;;;;;;;19.48;12.13;;;7.60;99.90;;;;;;5133537;27;20031;-62
2022/12/24 03:41:35;;;;;;;26.67;12.13;;;7.60;99.90;;;;;;5098510;27;20042;-63
2022/12/24 03:44:00;;;;;;;27.85;12.45;;;8.00;99.90;;;;;;5133285;27;20477;-64
2022/12/24 03:46:26;;;;;;;18.60;10.52;;;8.00;99.90;;;;;;5133453;27;20039;-64
2022/12/24 03:48:53;;;;;;;23.15;10.57;;;8.00;99.90;;;;;;5133554;27;20133;-64
2022/12/24 03:51:23;;;;;;;23.65;11.10;;;7.80;99.90;;;;;;5114800;28;20061;-64
2022/12/24 03:53:51;;;;;;;20.92;10.65;;;7.80;99.90;;;;;;5133386;27;20043;-62
2022/12/24 03:56:17;;;;;;;20.63;10.40;;;7.90;99.90;;;;;;5133175;27;20071;-63
2022/12/24 03:58:42;;;;;;;20.58;9.63;;;8.00;99.90;;;;;;5133418;28;20077;-64
2022/12/24 04:01:08;;;;;;;18.17;10.30;;;7.90;99.90;;;;;;5133273;28;20070;-64
2022/12/24 04:03:34;;;;;;;17.60;9.88;;;7.90;99.90;;;;;;5133421;28;20117;-64
2022/12/24 04:06:14;;;;;;;23.20;10.32;;;8.00;99.90;;;;;;5133234;28;20459;-64
2022/12/24 04:08:40;;;;;;;21.98;9.73;;;7.90;99.90;;;;;;5133404;28;20054;-64
2022/12/24 04:11:10;;;;;;;26.23;10.18;;;8.10;99.90;;;;;;5132971;28;20047;-63
2022/12/24 04:13:36;;;;;;;26.77;11.30;;;7.90;99.90;;;;;;5133345;28;20047;-62
2022/12/24 04:16:07;;;;;;;27.55;10.85;;;7.90;99.90;;;;;;5133031;28;20749;-63
2022/12/24 04:18:33;;;;;;;34.60;11.20;;;8.10;99.90;;;;;;5132840;28;20490;-64
2022/12/24 04:20:58;;;;;;;20.13;12.85;;;8.00;99.90;;;;;;5133130;28;20039;-64
2022/12/24 04:23:25;;;;;;;28.92;11.20;;;8.20;99.90;;;;;;5133448;28;20035;-63
2022/12/24 04:25:50;;;;;;;33.33;9.55;;;8.20;99.90;;;;;;5133257;28;20031;-63
2022/12/24 04:28:16;;;;;;;34.13;11.52;;;8.20;99.90;;;;;;5133559;28;20050;-64
2022/12/24 04:30:43;;;;;;;32.63;10.45;;;8.20;99.90;;;;;;5133250;28;20043;-64
2022/12/24 04:33:09;;;;;;;34.35;10.32;;;8.10;99.90;;;;;;5136018;27;20062;-64
2022/12/24 04:35:41;;;;;;;34.95;10.00;;;8.30;99.90;;;;;;5137051;27;20039;-63
2022/12/24 04:38:07;;;;;;;33.45;8.65;;;8.20;99.90;;;;;;5118440;27;20035;-63
2022/12/24 04:40:33;;;;;;;37.58;9.05;;;8.30;99.90;;;;;;5136990;27;20042;-62
2022/12/24 04:42:59;;;;;;;34.65;7.45;;;8.40;99.90;;;;;;5137306;27;20031;-63
2022/12/24 04:45:24;;;;;;;40.88;7.07;;;8.40;99.90;;;;;;5137189;27;20042;-64
2022/12/24 04:47:50;;;;;;;41.10;6.90;;;8.20;99.90;;;;;;5136670;27;20396;-64
2022/12/24 04:50:16;;;;;;;36.60;7.13;;;8.40;99.90;;;;;;5137105;27;20084;-63
2022/12/24 04:52:41;;;;;;;46.97;7.53;;;8.40;99.90;;;;;;5136978;27;20043;-63
2022/12/24 04:55:07;;;;;;;39.20;6.40;;;8.30;99.90;;;;;;5136885;27;20118;-63
2022/12/24 04:57:34;;;;;;;38.10;5.15;;;8.10;99.90;;;;;;5136886;27;20038;-62
2022/12/24 05:00:01;;;;;;;41.03;6.05;;;8.30;99.90;;;;;;5136678;27;20050;-63
2022/12/24 05:02:26;;;;;;;40.53;6.82;;;8.30;99.90;;;;;;5136540;27;20489;-62
2022/12/24 05:04:52;;;;;;;40.17;7.65;;;8.30;99.90;;;;;;5136850;27;20082;-63
2022/12/24 05:07:17;;;;;;;46.10;6.57;;;8.10;99.90;;;;;;5136340;27;20042;-63
2022/12/24 05:09:43;;;;;;;47.97;6.63;;;8.20;99.90;;;;;;5136836;27;20106;-63
2022/12/24 05:12:09;;;;;;;43.80;6.53;;;8.20;99.90;;;;;;5136806;27;20457;-62
2022/12/24 05:14:34;;;;;;;31.85;5.45;;;8.10;99.90;;;;;;5136411;27;20487;-63
2022/12/24 05:17:00;;;;;;;51.13;5.90;;;8.10;99.90;;;;;;5136307;27;20051;-63
2022/12/24 05:19:26;;;;;;;39.80;6.72;;;8.20;99.90;;;;;;5136447;27;20046;-63
2022/12/24 05:27:20;;;;;;;38.10;6.00;;;8.20;99.90;;;;;;5136424;27;20043;-63
2022/12/24 05:29:46;;;;;;;37.10;6.57;;;8.20;99.90;;;;;;5136517;27;20042;-63
2022/12/24 05:32:12;;;;;;;41.22;7.00;;;8.20;99.90;;;;;;5117688;27;20055;-64
2022/12/24 05:34:37;;;;;;;40.95;6.85;;;8.30;99.90;;;;;;5136301;27;20118;-63
2022/12/24 05:37:03;;;;;;;42.00;8.02;;;8.30;99.90;;;;;;5136264;27;20062;-62
2022/12/24 05:39:28;;;;;;;40.22;6.25;;;8.30;99.90;;;;;;5136232;27;20103;-64
2022/12/24 05:41:54;;;;;;;54.45;7.05;;;8.30;99.90;;;;;;5136332;27;20050;-63
2022/12/24 05:44:20;;;;;;;43.13;7.18;;;8.20;99.90;;;;;;5117273;27;20043;-63
2022/12/24 05:46:46;;;;;;;47.60;6.53;;;8.20;99.90;;;;;;5136003;27;20114;-63
2022/12/24 05:49:12;;;;;;;44.10;6.43;;;8.40;99.90;;;;;;5136062;27;20121;-61
2022/12/24 05:51:39;;;;;;;49.13;6.85;;;8.20;99.90;;;;;;5136178;27;20370;-61
2022/12/24 05:54:05;;;;;;;51.50;6.85;;;8.20;99.90;;;;;;5135849;27;20382;-63
2022/12/24 05:56:31;;;;;;;35.58;5.47;;;8.30;99.90;;;;;;5135440;27;20035;-61
2022/12/24 05:58:56;;;;;;;53.70;6.65;;;8.40;99.90;;;;;;5136028;27;20070;-61
2022/12/24 06:01:23;;;;;;;43.55;6.40;;;8.40;99.90;;;;;;5135794;27;20881;-61
2022/12/24 06:03:50;;;;;;;50.05;6.93;;;8.40;99.90;;;;;;5117358;27;20043;-62
2022/12/24 06:06:22;;;;;;;49.22;7.35;;;8.20;99.90;;;;;;5135505;27;20084;-62
2022/12/24 06:08:48;;;;;;;48.97;6.60;;;8.20;99.90;;;;;;5135763;27;20082;-63
2022/12/24 06:11:16;;;;;;;51.95;7.28;;;8.20;99.90;;;;;;5117142;27;20035;-62
2022/12/24 06:13:42;;;;;;;49.00;6.72;;;8.20;99.90;;;;;;5135178;27;20139;-62
2022/12/24 06:16:13;;;;;;;52.22;6.68;;;8.40;99.90;;;;;;5135463;27;20052;-62
2022/12/24 06:18:39;;;;;;;34.13;6.15;;;8.20;99.90;;;;;;5134995;27;20516;-63
2022/12/24 06:21:05;;;;;;;39.92;7.30;;;8.30;99.90;;;;;;5135460;27;20056;-62
2022/12/24 06:23:33;;;;;;;47.80;7.22;;;8.30;99.90;;;;;;5135390;27;20441;-63
2022/12/24 06:26:00;;;;;;;46.58;6.93;;;8.20;99.90;;;;;;5134950;27;20069;-62
2022/12/24 06:28:30;;;;;;;47.30;6.07;;;8.20;99.90;;;;;;5135371;27;20423;-62
2022/12/24 06:30:56;;;;;;;54.40;7.57;;;8.30;99.90;;;;;;5116627;27;20035;-63
2022/12/24 06:33:22;;;;;;;36.25;7.50;;;8.20;99.90;;;;;;5135082;27;20041;-62
2022/12/24 06:35:48;;;;;;;43.97;7.88;;;8.40;99.90;;;;;;5135019;27;20039;-61
2022/12/24 06:38:14;;;;;;;51.38;6.13;;;8.30;99.90;;;;;;5135050;27;20042;-61
2022/12/24 06:40:41;;;;;;;48.90;7.32;;;8.40;99.90;;;;;;5134642;27;20042;-62
2022/12/24 06:43:06;;;;;;;49.63;7.10;;;8.20;99.90;;;;;;5134962;27;20035;-62
2022/12/24 06:45:32;;;;;;;41.35;9.25;;;8.40;99.90;;;;;;5135089;27;20050;-63
2022/12/24 06:47:59;;;;;;;39.78;6.53;;;8.20;99.90;;;;;;5134875;27;20067;-61
2022/12/24 06:50:24;;;;;;;49.20;6.95;;;8.40;99.90;;;;;;5134859;27;20396;-62
2022/12/24 06:52:50;;;;;;;55.00;8.63;;;8.30;99.90;;;;;;5135065;27;20035;-61
2022/12/24 06:55:16;;;;;;;55.05;7.97;;;8.40;99.90;;;;;;5134047;27;20040;-62
2022/12/24 06:57:41;;;;;;;46.80;6.47;;;8.30;99.90;;;;;;5134626;27;20051;-63
2022/12/24 07:00:09;;;;;;;35.47;5.18;;;8.50;99.90;;;;;;5115849;27;20112;-62
2022/12/24 07:02:39;;;;;;;42.72;8.07;;;8.40;99.90;;;;;;5116211;27;20039;-61
2022/12/24 07:05:05;;;;;;;51.42;6.43;;;8.40;99.90;;;;;;5134782;27;20039;-62
2022/12/24 07:07:30;;;;;;;38.80;6.47;;;8.30;99.90;;;;;;5115446;27;20405;-62
2022/12/24 07:09:56;;;;;;;37.20;5.90;;;8.40;99.90;;;;;;5134607;27;20046;-61
2022/12/24 07:12:21;;;;;;;38.20;6.90;;;8.30;99.90;;;;;;5134057;27;20544;-62
2022/12/24 07:14:47;;;;;;;45.67;8.27;;;8.30;99.90;;;;;;5134439;27;20039;-62
2022/12/24 07:17:13;;;;;;;54.03;7.60;;;8.20;99.90;;;;;;5134078;27;20043;-62
2022/12/24 07:19:38;;;;;;;41.88;7.15;;;8.20;99.90;;;;;;5134475;27;20115;-62
2022/12/24 07:22:04;;;;;;;50.83;7.22;;;8.10;99.90;;;;;;5134124;27;20153;-62
2022/12/24 07:24:30;;;;;;;45.72;7.03;;;8.30;99.90;;;;;;5134243;27;20092;-62
2022/12/24 07:26:56;;;;;;;44.10;6.25;;;8.00;99.90;;;;;;5134291;27;20137;-62
2022/12/24 07:29:21;;;;;;;44.05;7.53;;;8.00;99.90;;;;;;5115663;27;20476;-61
2022/12/24 07:31:47;;;;;;;42.08;7.55;;;8.10;99.90;;;;;;5134050;27;20054;-61
2022/12/24 07:34:12;;;;;;;40.22;6.15;;;8.10;99.90;;;;;;5133973;27;20042;-61
2022/12/24 07:36:38;;;;;;;50.90;7.22;;;8.00;99.90;;;;;;5134121;27;20039;-63
2022/12/24 07:39:04;;;;;;;36.80;7.00;;;8.10;99.90;;;;;;5115453;27;20496;-61
2022/12/24 07:41:29;;;;;;;36.47;6.15;;;8.10;99.90;;;;;;5133896;27;20137;-62
2022/12/24 07:43:55;;;;;;;39.97;5.95;;;8.00;99.90;;;;;;5134020;27;20035;-62
2022/12/24 07:46:21;;;;;;;38.15;7.25;;;8.00;99.90;;;;;;5115345;27;20100;-61
2022/12/24 07:48:46;;;;;;;45.78;6.65;;;7.90;99.90;;;;;;5133912;27;20035;-62
2022/12/24 07:51:12;;;;;;;39.50;5.70;;;8.00;99.90;;;;;;5133663;27;20043;-61
2022/12/24 07:53:37;;;;;;;42.42;7.15;;;7.90;99.90;;;;;;5133849;27;20037;-61
2022/12/24 07:56:03;;;;;;;42.88;6.38;;;8.10;99.90;;;;;;5133763;27;20457;-61
2022/12/24 07:58:29;;;;;;;53.35;7.82;;;8.00;99.90;;;;;;5133365;27;20095;-62
2022/12/24 08:00:59;;;;;;;42.88;6.22;;;8.20;99.90;;;;;;5133787;28;20039;-61
2022/12/24 08:03:25;;;;;;;43.58;6.90;;;8.10;99.90;;;;;;5133557;28;20082;-61
2022/12/24 08:05:51;;;;;;;46.85;5.45;;;8.00;99.90;;;;;;5115887;27;20485;-62
2022/12/24 08:08:18;;;;;;;46.92;7.43;;;8.10;99.90;;;;;;5137896;27;20110;-62
2022/12/24 08:10:44;;;;;;;50.90;8.07;;;8.20;99.90;;;;;;5138048;27;20035;-61
2022/12/24 08:13:10;;;;;;;46.25;6.20;;;8.30;99.90;;;;;;5138225;27;20023;-61
2022/12/24 08:15:36;;;;;;;49.63;8.10;;;8.40;99.90;;;;;;5137497;27;20503;-61
2022/12/24 08:18:01;;;;;;;51.53;7.22;;;8.30;99.90;;;;;;5137801;27;20061;-62
2022/12/24 08:20:27;;;;;;;42.83;7.25;;;8.30;99.90;;;;;;5137947;27;20031;-62
2022/12/24 08:22:53;;;;;;;46.42;6.90;;;8.40;99.90;;;;;;5137972;27;20033;-62
2022/12/24 08:25:19;;;;;;;41.05;7.65;;;8.40;99.90;;;;;;5137320;27;20118;-62
2022/12/24 08:27:45;;;;;;;48.40;7.90;;;8.30;99.90;;;;;;5118975;27;20040;-61
2022/12/24 08:30:11;;;;;;;43.22;8.02;;;8.40;99.90;;;;;;5137533;27;20084;-62
2022/12/24 08:32:37;;;;;;;49.05;7.32;;;8.30;99.90;;;;;;5119135;27;20381;-61
2022/12/24 08:35:03;;;;;;;42.25;6.45;;;8.30;99.90;;;;;;5137212;27;20080;-61
2022/12/24 08:37:29;;;;;;;41.90;7.63;;;8.40;99.90;;;;;;5137912;27;20810;-61
2022/12/24 08:39:55;;;;;;;54.92;8.38;;;8.70;99.90;;;;;;5137576;27;20039;-61
2022/12/24 08:42:20;;;;;;;46.67;8.18;;;8.50;99.90;;;;;;5118881;27;20065;-62
2022/12/24 08:44:46;;;;;;;40.85;7.68;;;8.40;99.90;;;;;;5137401;27;20046;-61
2022/12/24 08:47:12;;;;;;;42.35;7.72;;;8.50;99.90;;;;;;5137451;27;20430;-62
2022/12/24 08:49:38;;;;;;;36.47;5.97;;;8.50;99.90;;;;;;5137418;27;20043;-61
2022/12/24 08:52:05;;;;;;;41.17;6.03;;;8.50;99.90;;;;;;5137147;27;20396;-62
2022/12/24 08:54:31;;;;;;;48.30;7.97;;;8.50;99.90;;;;;;5137008;27;20035;-62
2022/12/24 08:56:56;;;;;;;44.30;6.20;;;8.60;99.90;;;;;;5137127;27;20530;-61
2022/12/24 08:59:22;;;;;;;48.10;9.45;;;8.50;99.90;;;;;;5137031;27;20031;-61
2022/12/24 09:01:47;;;;;;;50.63;7.28;;;8.70;99.90;;;;;;5136759;27;20093;-61
2022/12/24 09:04:13;;;;;;;37.60;6.70;;;8.70;99.90;;;;;;5137079;27;20035;-61
2022/12/24 09:06:39;;;;;;;45.22;6.72;;;8.50;99.90;;;;;;5136853;27;20039;-62
2022/12/24 09:09:05;;;;;;;41.13;6.38;;;8.60;99.90;;;;;;5137053;27;20031;-62
2022/12/24 09:11:33;;;;;;;40.60;6.50;;;8.70;99.90;;;;;;5136777;27;20050;-62
2022/12/24 09:13:59;;;;;;;33.78;5.70;;;8.70;99.90;;;;;;5136628;27;20027;-61
2022/12/24 09:16:25;;;;;;;37.95;5.45;;;8.80;99.90;;;;;;5136458;27;20058;-61
2022/12/24 09:18:50;;;;;;;41.08;6.75;;;8.80;99.90;;;;;;5135697;27;20035;-62
2022/12/24 09:21:17;;;;;;;56.85;7.03;;;8.70;99.90;;;;;;5136719;27;20032;-62
2022/12/24 09:23:45;;;;;;;41.17;5.85;;;8.90;99.90;;;;;;5136666;27;20109;-61
2022/12/24 09:26:18;;;;;;;35.03;6.85;;;8.70;99.90;;;;;;5136558;27;20077;-63
2022/12/24 09:28:44;;;;;;;35.60;6.50;;;8.90;99.90;;;;;;5136611;27;20047;-63
2022/12/24 09:31:11;;;;;;;44.08;6.70;;;8.70;99.90;;;;;;5136402;27;20470;-62
2022/12/24 09:33:38;;;;;;;31.48;5.70;;;8.90;99.90;;;;;;5117927;27;20524;-62
2022/12/24 09:36:05;;;;;;;38.78;6.07;;;8.70;99.90;;;;;;5136373;27;20080;-63
2022/12/24 09:38:32;;;;;;;37.47;6.38;;;8.90;99.90;;;;;;5136387;27;20031;-64
2022/12/24 09:40:59;;;;;;;47.10;7.05;;;8.90;99.90;;;;;;5117604;27;20043;-64
2022/12/24 09:43:28;;;;;;;35.00;5.43;;;8.90;99.90;;;;;;5136337;27;20031;-63
2022/12/24 09:46:15;;;;;;;35.50;5.78;;;8.70;99.90;;;;;;5136006;27;20046;-63
2022/12/24 09:48:48;;;;;;;38.75;6.40;;;8.70;99.90;;;;;;5135984;27;20049;-63
2022/12/24 09:51:42;;;;;;;38.53;6.65;;;8.90;99.90;;;;;;5135801;27;20062;-63
2022/12/24 09:54:24;;;;;;;41.47;7.28;;;8.90;99.90;;;;;;5135609;27;20054;-63
2022/12/24 09:56:52;;;;;;;39.72;6.47;;;8.90;99.90;;;;;;5135470;27;20099;-63
2022/12/24 09:59:24;;;;;;;38.63;6.70;;;8.80;99.90;;;;;;5135734;27;20356;-64
2022/12/24 10:01:52;;;;;;;42.95;6.03;;;9.10;99.90;;;;;;5136247;27;20043;-62
2022/12/24 10:04:22;;;;;;;41.05;6.90;;;9.00;99.90;;;;;;5136031;27;20046;-62
2022/12/24 10:07:20;;;;;;;36.42;6.05;;;9.10;99.90;;;;;;5135358;27;20046;-63
2022/12/24 10:09:56;;;;;;;46.35;6.95;;;9.10;99.90;;;;;;5135160;27;20087;-63
2022/12/24 10:12:38;;;;;;;43.22;7.20;;;9.30;99.90;;;;;;5135317;27;20143;-63
2022/12/24 10:15:25;;;;;;;36.78;6.07;;;9.20;99.90;;;;;;5135101;27;20039;-63
2022/12/24 10:18:06;;;;;;;35.30;6.03;;;9.30;99.90;;;;;;5135434;27;20077;-64
2022/12/24 10:20:55;;;;;;;36.65;7.10;;;9.20;99.90;;;;;;5135266;27;20074;-63
2022/12/24 10:23:24;;;;;;;37.92;7.38;;;9.30;99.90;;;;;;5135514;27;20432;-63
2022/12/24 10:26:22;;;;;;;40.42;6.85;;;9.40;99.90;;;;;;5134678;27;20095;-64
2022/12/24 10:29:00;;;;;;;42.83;6.88;;;9.50;99.90;;;;;;5031669;28;20172;-62
2022/12/24 10:31:30;;;;;;;41.33;7.38;;;9.70;99.90;;;;;;5030939;28;20124;-62
2022/12/24 10:34:04;;;;;;;45.20;8.95;;;9.80;99.90;;;;;;5014969;28;20049;-63
2022/12/24 10:36:31;;;;;;;41.05;6.38;;;9.70;99.90;;;;;;5031736;28;20131;-62
2022/12/24 10:38:57;;;;;;;44.97;7.13;;;9.80;99.90;;;;;;5031464;28;20116;-62
2022/12/24 10:41:25;;;;;;;44.00;6.45;;;9.80;99.90;;;;;;5031532;28;20041;-62
2022/12/24 10:43:52;;;;;;;36.67;6.70;;;9.80;99.90;;;;;;5031438;28;20124;-62
2022/12/24 10:46:24;;;;;;;23.92;5.25;;;9.70;99.90;;;;;;5031088;28;20066;-61
2022/12/24 10:48:59;;;;;;;31.48;6.43;;;9.80;99.90;;;;;;5031400;28;20443;-63
2022/12/24 10:51:42;;;;;;;33.80;6.07;;;9.70;99.90;;;;;;5031282;28;20469;-63
2022/12/24 10:54:17;;;;;;;34.42;6.50;;;9.80;99.90;;;;;;5030793;28;20073;-63
2022/12/24 10:56:49;;;;;;;34.75;5.80;;;9.90;99.90;;;;;;5030936;28;20042;-63
2022/12/24 10:59:37;;;;;;;41.13;6.57;;;9.80;99.90;;;;;;5030967;28;20120;-61
2022/12/24 11:02:23;;;;;;;32.15;5.97;;;9.90;99.90;;;;;;5030938;28;20160;-62
2022/12/24 11:04:50;;;;;;;38.90;6.05;;;9.90;99.90;;;;;;5067126;27;20125;-62
2022/12/24 11:07:21;;;;;;;35.22;6.60;;;9.90;99.90;;;;;;5133938;27;20061;-62
2022/12/24 11:09:55;;;;;;;34.67;6.75;;;9.90;99.90;;;;;;5134300;27;20434;-62
2022/12/24 11:12:34;;;;;;;33.22;6.00;;;9.90;99.90;;;;;;5116081;27;20114;-63
2022/12/24 11:15:06;;;;;;;27.80;6.18;;;9.90;99.90;;;;;;5134162;27;20077;-63
2022/12/24 11:17:33;;;;;;;27.25;6.00;;;9.90;99.90;;;;;;5133826;27;20055;-63
2022/12/24 11:19:59;;;;;;;31.08;6.20;;;9.90;99.90;;;;;;5134329;27;20042;-63
2022/12/24 11:22:28;;;;;;;39.85;5.57;;;9.90;99.90;;;;;;5133815;27;20079;-63
2022/12/24 11:24:56;;;;;;;33.72;6.20;;;9.90;99.90;;;;;;5133862;27;20042;-63
2022/12/24 11:27:31;;;;;;;29.92;6.13;;;9.90;99.90;;;;;;5115499;27;20088;-62
2022/12/24 11:30:15;;;;;;;32.10;6.07;;;9.80;99.90;;;;;;5133557;27;20043;-62
2022/12/24 11:32:46;;;;;;;34.63;6.05;;;9.90;99.90;;;;;;5133817;27;20088;-63
2022/12/24 11:35:21;;;;;;;33.50;6.00;;;9.80;99.90;;;;;;5115165;27;20126;-64
2022/12/24 11:37:59;;;;;;;30.58;5.22;;;9.80;99.90;;;;;;5133803;27;20118;-63
2022/12/24 11:40:27;;;;;;;38.95;8.82;;;9.80;99.90;;;;;;5133341;27;20530;-63
2022/12/24 11:42:59;;;;;;;22.30;4.88;;;9.80;99.90;;;;;;5133145;27;20397;-62
2022/12/24 11:45:27;;;;;;;31.27;5.35;;;9.90;99.90;;;;;;5133793;27;20126;-63
2022/12/24 11:47:54;;;;;;;27.38;5.15;;;9.90;99.90;;;;;;5133970;27;20039;-64
2022/12/24 11:50:28;;;;;;;26.48;4.80;;;9.80;99.90;;;;;;5133462;27;20047;-62
2022/12/24 11:53:03;;;;;;;35.80;4.85;;;9.80;99.90;;;;;;5133482;27;20042;-63
2022/12/24 11:55:57;;;;;;;35.75;5.63;;;9.80;99.90;;;;;;5133228;27;20493;-63
2022/12/24 11:58:46;;;;;;;27.13;5.80;;;9.90;99.90;;;;;;5128353;27;20050;-64
2022/12/24 12:01:27;;;;;;;26.25;4.43;;;9.80;99.90;;;;;;5133437;27;20512;-64
2022/12/24 12:03:58;;;;;;;38.70;6.20;;;9.80;99.90;;;;;;5133745;27;20046;-64
2022/12/24 12:06:54;;;;;;;30.15;5.03;;;9.80;99.90;;;;;;5133614;28;20453;-63
2022/12/24 12:09:27;;;;;;;23.83;5.30;;;9.80;99.90;;;;;;5133562;28;20043;-63
2022/12/24 12:12:16;;;;;;;29.63;6.70;;;9.80;99.90;;;;;;5133216;28;20491;-64
2022/12/24 12:14:47;;;;;;;20.10;5.13;;;9.80;99.90;;;;;;5132628;28;20051;-62
2022/12/24 12:17:39;;;;;;;39.80;6.38;;;9.80;99.90;;;;;;5133151;28;20047;-63
2022/12/24 12:20:18;;;;;;;29.48;5.43;;;9.70;99.90;;;;;;5115114;28;20774;-64
2022/12/24 12:22:51;;;;;;;27.15;4.28;;;9.70;99.90;;;;;;5133467;28;20042;-63
2022/12/24 12:25:43;;;;;;;28.20;4.18;;;9.70;99.90;;;;;;5133553;28;20043;-62
2022/12/24 12:28:19;;;;;;;23.23;4.38;;;9.70;99.90;;;;;;5133479;28;20139;-63
2022/12/24 12:30:49;;;;;;;22.20;4.60;;;9.60;99.90;;;;;;5132792;28;20095;-64
2022/12/24 12:33:25;;;;;;;21.25;3.88;;;9.70;99.90;;;;;;5114604;28;20051;-63
2022/12/24 12:35:53;;;;;;;26.52;4.53;;;9.70;99.90;;;;;;5133304;28;20051;-63
2022/12/24 12:38:28;;;;;;;28.27;4.30;;;9.70;99.90;;;;;;5133444;28;20039;-63
2022/12/24 12:41:09;;;;;;;25.27;4.82;;;9.70;99.90;;;;;;5133080;28;20046;-64
2022/12/24 12:43:55;;;;;;;24.85;4.78;;;9.80;99.90;;;;;;5132596;28;20036;-62
2022/12/24 12:46:38;;;;;;;28.38;6.13;;;9.80;99.90;;;;;;5133153;28;20122;-63
2022/12/24 12:49:10;;;;;;;27.27;4.75;;;9.80;99.90;;;;;;5132927;28;20043;-63
2022/12/24 12:51:54;;;;;;;27.42;4.45;;;9.80;99.90;;;;;;5132862;28;20080;-62
2022/12/24 12:54:26;;;;;;;31.65;5.55;;;9.80;99.90;;;;;;5135574;27;20039;-63
2022/12/24 12:56:57;;;;;;;29.67;4.78;;;9.80;99.90;;;;;;5136396;27;20042;-63
2022/12/24 12:59:37;;;;;;;35.35;6.28;;;9.80;99.90;;;;;;5118307;27;20100;-63
2022/12/24 13:02:38;;;;;;;30.70;5.32;;;9.80;99.90;;;;;;5136271;27;20059;-62
2022/12/24 13:05:21;;;;;;;24.17;4.30;;;9.80;99.90;;;;;;5032996;28;20045;-62
2022/12/24 13:08:06;;;;;;;21.95;4.40;;;9.80;99.90;;;;;;5033061;28;20042;-63